Time;durP1;ratioP1;P1;durP2;ratioP2;P2;SDS_P1;SDS_P2;PMS_P1;PMS_P2;Temp;Humidity;BMP_temperature;BMP_pressure;BME280_temperature;BME280_humidity;BME280_pressure;Samples;Min_cycle;Max_cycle;Signal;HPM_P1;HPM_P2
2022/08/13 00:00:36;;;;;;;13.70;11.00;;;;;;;19.71;89.42;100861.60;86096;1329;22331;-69
2022/08/13 00:02:45;;;;;;;13.40;12.10;;;;;;;19.70;89.48;100854.19;86041;1330;22312;-69
2022/08/13 00:04:56;;;;;;;12.40;10.60;;;;;;;19.67;89.38;100849.27;86094;1331;22986;-69
2022/08/13 00:07:08;;;;;;;15.40;11.20;;;;;;;19.66;89.39;100852.58;86090;1329;22258;-69
2022/08/13 00:09:20;;;;;;;11.70;10.20;;;;;;;19.66;89.58;100861.23;86094;1330;22724;-69
2022/08/13 00:13:55;;;;;;;11.80;10.80;;;;;;;19.67;89.54;100861.16;86094;1332;22193;-69
2022/08/13 00:16:04;;;;;;;11.30;9.60;;;;;;;19.68;89.48;100860.00;86096;1332;22934;-69
2022/08/13 00:18:16;;;;;;;9.80;8.90;;;;;;;19.68;89.46;100859.10;86096;1332;22946;-69
2022/08/13 00:20:27;;;;;;;10.00;9.10;;;;;;;19.69;89.46;100862.75;86097;1323;22996;-69
2022/08/13 00:22:38;;;;;;;11.20;9.50;;;;;;;19.70;89.33;100860.42;86036;1330;22329;-70
2022/08/13 00:24:51;;;;;;;10.70;9.70;;;;;;;19.70;89.33;100863.73;86100;1332;23054;-69
2022/08/13 00:31:20;;;;;;;14.90;11.20;;;;;;;19.67;89.44;100851.95;86120;1314;22583;-69
2022/08/13 00:33:33;;;;;;;11.80;8.70;;;;;;;19.67;89.34;100848.79;86179;1329;22904;-70
2022/08/13 00:35:42;;;;;;;13.30;10.70;;;;;;;19.65;89.32;100845.20;86163;1326;23009;-70
2022/08/13 00:37:53;;;;;;;16.30;10.00;;;;;;;19.65;89.43;100840.95;86170;1326;22904;-69
2022/08/13 00:40:01;;;;;;;15.80;10.30;;;;;;;19.65;89.25;100837.79;86176;1329;22994;-69
2022/08/13 00:42:13;;;;;;;11.70;10.30;;;;;;;19.63;89.33;100839.81;86189;1329;22274;-69
2022/08/13 00:44:23;;;;;;;18.20;10.20;;;;;;;19.62;89.33;100831.08;86179;1329;22892;-69
2022/08/13 00:46:31;;;;;;;11.80;10.60;;;;;;;19.60;89.20;100830.85;86082;1331;22362;-69
2022/08/13 00:48:43;;;;;;;12.40;10.90;;;;;;;19.58;89.46;100826.30;86173;1327;22888;-70
2022/08/13 00:50:56;;;;;;;11.30;10.20;;;;;;;19.58;89.36;100820.11;86168;1329;22854;-70
2022/08/13 00:53:04;;;;;;;11.60;9.60;;;;;;;19.57;89.45;100819.13;86107;1329;22358;-69
2022/08/13 00:55:17;;;;;;;11.80;10.50;;;;;;;19.57;89.35;100824.80;86154;1326;23054;-69
2022/08/13 00:57:26;;;;;;;16.90;11.40;;;;;;;19.56;89.57;100825.19;86164;1330;22931;-69
2022/08/13 00:59:34;;;;;;;10.80;9.70;;;;;;;19.55;89.55;100826.67;86155;1330;22235;-69
2022/08/13 01:01:46;;;;;;;12.80;10.30;;;;;;;19.55;89.66;100824.58;86158;1328;22293;-69
2022/08/13 01:03:55;;;;;;;20.40;11.30;;;;;;;19.55;89.61;100811.09;86168;1324;22895;-69
2022/08/13 01:06:08;;;;;;;11.80;10.00;;;;;;;19.55;89.52;100810.41;86157;1331;23049;-69
2022/08/13 01:08:40;;;;;;;10.40;9.40;;;;;;;19.51;89.43;100806.96;86076;1332;22279;-69
2022/08/13 01:10:50;;;;;;;10.90;9.70;;;;;;;19.50;89.50;100809.16;86169;1328;22299;-69
2022/08/13 01:13:00;;;;;;;;;;;;;;;19.51;89.66;100806.59;86162;1330;22449;-70
2022/08/13 01:15:14;;;;;;;12.10;9.50;;;;;;;19.50;89.78;100805.23;86145;1331;22321;-70
2022/08/13 01:17:23;;;;;;;10.00;9.10;;;;;;;19.53;89.70;100810.17;86166;1330;22834;-69
2022/08/13 01:19:33;;;;;;;11.00;9.90;;;;;;;19.54;89.68;100806.96;86080;1329;22400;-69
2022/08/13 01:21:42;;;;;;;12.70;9.50;;;;;;;19.54;89.53;100809.58;86162;1327;22393;-69
2022/08/13 01:23:52;;;;;;;13.20;10.50;;;;;;;19.53;89.40;100806.65;86169;1330;22284;-69
2022/08/13 01:26:01;;;;;;;19.20;11.20;;;;;;;19.52;89.40;100810.80;86166;1329;22187;-69
2022/08/13 01:28:10;;;;;;;21.10;10.30;;;;;;;19.52;89.44;100806.91;86153;1330;22279;-69
2022/08/13 01:30:20;;;;;;;11.80;10.00;;;;;;;19.52;89.44;100805.54;86167;1328;23049;-69
2022/08/13 01:32:29;;;;;;;13.00;10.10;;;;;;;19.50;89.32;100807.55;86176;1330;22205;-69
2022/08/13 01:34:38;;;;;;;12.70;9.70;;;;;;;19.48;89.49;100808.74;86146;1326;22358;-69
2022/08/13 01:36:49;;;;;;;11.50;9.40;;;;;;;19.47;89.44;100803.02;86167;1328;22383;-69
2022/08/13 01:39:01;;;;;;;12.90;9.80;;;;;;;19.45;89.52;100804.57;86151;1330;22502;-69
2022/08/13 01:41:10;;;;;;;8.70;7.90;;;;;;;19.45;89.61;100802.63;86168;1328;22265;-69
2022/08/13 01:43:20;;;;;;;11.10;8.10;;;;;;;19.47;89.60;100805.00;86162;1328;22321;-69
2022/08/13 01:45:29;;;;;;;8.70;7.90;;;;;;;19.47;89.55;100800.16;86170;1327;22227;-69
2022/08/13 01:52:29;;;;;;;8.70;7.50;;;;;;;19.41;89.47;100801.10;86163;1331;22847;-69
2022/08/13 01:54:38;;;;;;;8.90;7.90;;;;;;;19.39;89.47;100802.00;86163;1328;22999;-69
2022/08/13 01:56:47;;;;;;;12.90;9.60;;;;;;;19.36;89.53;100803.41;86160;1326;22370;-69
2022/08/13 01:58:57;;;;;;;11.30;8.70;;;;;;;19.34;89.65;100797.54;86169;1330;23126;-69
2022/08/13 02:01:07;;;;;;;10.10;9.00;;;;;;;19.33;89.74;100797.08;86142;1327;22332;-69
2022/08/13 02:03:17;;;;;;;11.80;8.40;;;;;;;19.33;89.87;100792.27;86168;1330;22379;-69
2022/08/13 02:05:26;;;;;;;8.50;7.30;;;;;;;19.34;89.84;100794.52;86167;1330;22825;-69
2022/08/13 02:07:35;;;;;;;8.00;7.30;;;;;;;19.33;89.81;100789.27;86172;1331;22298;-69
2022/08/13 02:09:45;;;;;;;8.30;7.50;;;;;;;19.34;89.74;100783.38;86155;1330;22885;-69
2022/08/13 02:11:54;;;;;;;7.80;7.00;;;;;;;19.35;89.82;100779.07;86161;1328;22364;-69
2022/08/13 02:14:04;;;;;;;8.30;7.10;;;;;;;19.36;89.76;100774.41;86165;1330;22532;-69
2022/08/13 02:16:13;;;;;;;9.00;7.00;;;;;;;19.35;89.75;100777.10;86151;1330;22397;-69
2022/08/13 02:18:24;;;;;;;8.10;7.40;;;;;;;19.34;89.79;100784.61;86161;1331;22326;-69
2022/08/13 02:20:34;;;;;;;7.70;7.00;;;;;;;19.32;89.86;100787.06;86161;1328;22326;-69
2022/08/13 02:22:42;;;;;;;11.90;6.50;;;;;;;19.32;89.98;100789.30;86162;1330;22950;-69
2022/08/13 02:24:56;;;;;;;8.70;6.40;;;;;;;19.32;90.08;100782.60;86165;1328;22323;-69
2022/08/13 02:27:04;;;;;;;9.60;8.50;;;;;;;19.30;89.90;100785.73;86173;1328;22287;-69
2022/08/13 02:29:13;;;;;;;11.90;9.60;;;;;;;19.28;89.86;100783.39;86160;1330;22436;-69
2022/08/13 02:31:22;;;;;;;10.70;9.20;;;;;;;19.26;90.01;100787.13;86169;1330;23043;-69
2022/08/13 02:33:33;;;;;;;13.30;9.40;;;;;;;19.23;89.80;100781.98;86150;1331;23115;-69
2022/08/13 02:35:42;;;;;;;13.90;10.50;;;;;;;19.21;90.06;100784.83;86169;1328;22405;-69
2022/08/13 02:37:51;;;;;;;15.60;11.70;;;;;;;19.20;90.20;100786.27;86136;1330;22991;-69
2022/08/13 02:40:00;;;;;;;14.40;10.80;;;;;;;19.20;90.31;100790.89;86163;1330;22403;-69
2022/08/13 02:42:10;;;;;;;14.40;11.10;;;;;;;19.19;90.40;100789.37;86151;1330;22167;-69
2022/08/13 02:44:25;;;;;;;16.20;11.40;;;;;;;19.18;90.50;100794.91;86163;1328;22323;-69
2022/08/13 02:46:34;;;;;;;12.10;10.60;;;;;;;19.18;90.63;100789.81;86170;1330;23065;-69
2022/08/13 02:48:44;;;;;;;13.60;10.60;;;;;;;19.17;90.62;100787.68;86162;1330;22958;-69
2022/08/13 02:50:54;;;;;;;14.00;10.10;;;;;;;19.18;90.73;100786.77;86158;1328;22902;-69
2022/08/13 02:53:04;;;;;;;12.60;9.00;;;;;;;19.20;90.74;100779.17;86156;1330;22929;-69
2022/08/13 02:55:13;;;;;;;12.20;8.90;;;;;;;19.21;90.72;100777.19;86166;1328;22306;-69
2022/08/13 02:57:23;;;;;;;11.20;8.40;;;;;;;19.21;90.55;100771.55;86160;1328;22253;-69
2022/08/13 02:59:31;;;;;;;14.00;8.20;;;;;;;19.18;90.30;100771.89;86146;1330;22285;-69
2022/08/13 03:01:40;;;;;;;8.60;7.70;;;;;;;19.14;90.11;100773.45;86160;1328;23059;-69
2022/08/13 03:03:49;;;;;;;9.60;8.60;;;;;;;19.09;90.08;100771.60;86173;1326;22303;-69
2022/08/13 03:05:58;;;;;;;12.30;8.30;;;;;;;19.07;90.19;100772.13;86159;1328;22254;-69
2022/08/13 03:08:07;;;;;;;9.10;8.30;;;;;;;19.03;89.99;100771.14;86097;1329;22995;-69
2022/08/13 03:10:17;;;;;;;9.70;8.80;;;;;;;18.98;89.97;100775.34;86094;1331;23106;-69
2022/08/13 03:12:28;;;;;;;9.70;8.20;;;;;;;18.94;89.97;100771.73;86169;1330;22380;-69
2022/08/13 03:14:38;;;;;;;10.30;8.30;;;;;;;18.89;89.85;100767.29;86168;1330;22281;-69
2022/08/13 03:16:47;;;;;;;8.60;7.90;;;;;;;18.84;89.87;100763.73;86146;1324;22344;-69
2022/08/13 03:18:57;;;;;;;10.80;7.50;;;;;;;18.79;89.78;100764.43;86159;1327;22328;-69
2022/08/13 03:21:06;;;;;;;9.30;7.70;;;;;;;18.74;89.72;100764.55;86155;1327;22296;-69
2022/08/13 03:23:14;;;;;;;9.00;8.10;;;;;;;18.71;89.86;100761.21;86163;1330;22985;-69
2022/08/13 03:25:24;;;;;;;8.70;7.90;;;;;;;18.70;89.96;100764.14;86164;1328;22920;-69
2022/08/13 03:27:32;;;;;;;8.70;7.60;;;;;;;18.68;89.89;100761.96;86153;1328;22886;-69
2022/08/13 03:29:41;;;;;;;9.40;7.50;;;;;;;18.66;89.95;100758.52;86168;1326;22274;-69
2022/08/13 03:31:52;;;;;;;7.90;7.20;;;;;;;18.64;89.93;100754.99;86168;1327;23037;-69
2022/08/13 03:34:02;;;;;;;8.00;7.00;;;;;;;18.61;89.92;100753.40;86157;1331;22975;-69
2022/08/13 03:36:15;;;;;;;7.90;7.00;;;;;;;18.58;89.91;100753.26;86161;1328;22405;-69
2022/08/13 03:38:24;;;;;;;8.90;6.70;;;;;;;18.55;90.05;100754.65;86085;1329;23177;-69
2022/08/13 03:43:09;;;;;;;7.10;6.50;;;;;;;18.48;90.02;100755.31;86165;1327;23232;-70
2022/08/13 03:45:20;;;;;;;7.30;6.60;;;;;;;18.45;90.07;100759.59;86173;1325;22314;-70
2022/08/13 03:47:30;;;;;;;7.50;6.80;;;;;;;18.43;90.14;100758.96;86163;1328;22289;-70
2022/08/13 03:49:39;;;;;;;9.10;7.80;;;;;;;18.43;90.22;100756.51;86156;1328;22294;-69
2022/08/13 03:51:49;;;;;;;7.50;6.80;;;;;;;18.43;90.32;100759.52;86161;1327;22923;-69
2022/08/13 03:53:59;;;;;;;7.50;6.80;;;;;;;18.42;90.24;100759.20;86162;1330;22385;-69
2022/08/13 03:56:09;;;;;;;7.30;6.40;;;;;;;18.42;90.42;100757.83;86092;1332;22438;-69
2022/08/13 03:58:21;;;;;;;8.40;7.60;;;;;;;18.42;90.52;100759.39;86173;1327;22977;-70
2022/08/13 04:00:30;;;;;;;6.90;6.40;;;;;;;18.42;90.53;100754.27;86168;1327;22820;-70
2022/08/13 04:02:40;;;;;;;7.50;6.80;;;;;;;18.44;90.72;100750.95;86163;1328;22318;-70
2022/08/13 04:04:50;;;;;;;8.20;7.40;;;;;;;18.48;91.11;100755.98;86173;1326;23077;-70
2022/08/13 04:07:00;;;;;;;9.90;7.40;;;;;;;18.54;91.18;100754.15;86153;1330;22875;-70
2022/08/13 04:09:09;;;;;;;7.80;7.10;;;;;;;18.61;91.43;100758.35;86165;1329;22289;-70
2022/08/13 04:11:19;;;;;;;7.50;6.80;;;;;;;18.66;91.55;100760.98;86151;1322;22331;-70
2022/08/13 04:13:29;;;;;;;7.60;6.90;;;;;;;18.72;91.70;100760.65;86167;1326;22250;-70
2022/08/13 04:15:37;;;;;;;7.40;6.70;;;;;;;18.77;91.73;100757.83;86167;1331;22976;-70
2022/08/13 04:17:46;;;;;;;11.70;6.90;;;;;;;18.82;91.74;100760.52;86157;1331;22929;-70
2022/08/13 04:19:55;;;;;;;10.30;7.60;;;;;;;18.86;91.19;100761.35;86149;1327;22949;-70
2022/08/13 04:22:04;;;;;;;15.10;7.70;;;;;;;18.88;91.19;100763.34;86140;1328;22864;-70
2022/08/13 04:24:14;;;;;;;31.90;10.10;;;;;;;18.91;91.05;100766.47;85891;1326;22358;-71
2022/08/13 04:26:23;;;;;;;30.10;10.30;;;;;;;18.93;90.69;100770.98;86171;1330;22315;-70
2022/08/13 04:28:32;;;;;;;31.70;9.20;;;;;;;18.95;90.56;100773.05;86163;1326;22242;-70
2022/08/13 04:30:42;;;;;;;50.00;10.20;;;;;;;18.99;90.34;100770.54;86149;1326;22373;-70
2022/08/13 04:32:51;;;;;;;42.00;8.80;;;;;;;19.03;90.14;100773.80;86161;1330;22303;-70
2022/08/13 04:35:00;;;;;;;63.40;11.60;;;;;;;19.05;89.63;100778.58;86160;1330;22855;-70
2022/08/13 04:37:10;;;;;;;58.90;9.90;;;;;;;19.08;89.40;100779.48;86167;1327;22350;-70
2022/08/13 04:39:19;;;;;;;38.60;11.20;;;;;;;19.11;89.35;100778.95;86115;1331;22876;-70
2022/08/13 04:41:27;;;;;;;20.00;8.00;;;;;;;19.14;89.16;100778.89;86177;1327;22832;-69
2022/08/13 04:43:36;;;;;;;30.70;9.20;;;;;;;19.18;89.10;100780.20;86169;1327;22316;-69
2022/08/13 04:45:45;;;;;;;24.00;7.40;;;;;;;19.22;88.80;100779.95;86157;1331;22918;-69
2022/08/13 04:47:58;;;;;;;45.70;10.20;;;;;;;19.25;88.62;100779.58;86163;1330;22324;-69
2022/08/13 04:50:08;;;;;;;29.60;8.70;;;;;;;19.28;88.77;100777.95;86174;1329;22314;-69
2022/08/13 04:52:16;;;;;;;49.20;9.40;;;;;;;19.32;88.33;100780.86;86164;1331;22278;-69
2022/08/13 04:54:25;;;;;;;34.90;9.20;;;;;;;19.36;87.98;100777.92;86174;1330;22522;-69
2022/08/13 04:56:34;;;;;;;34.10;9.10;;;;;;;19.41;87.94;100777.44;86162;1329;22926;-69
2022/08/13 04:58:43;;;;;;;40.00;10.20;;;;;;;19.47;87.65;100774.20;86155;1328;23135;-70
2022/08/13 05:00:52;;;;;;;58.40;11.10;;;;;;;19.52;87.24;100766.58;86160;1327;22996;-70
2022/08/13 05:03:11;;;;;;;47.10;12.70;;;;;;;19.58;87.22;100767.75;86167;1330;22364;-70
2022/08/13 05:05:21;;;;;;;24.10;9.00;;;;;;;19.68;87.18;100766.92;86121;1330;23042;-70
2022/08/13 05:07:30;;;;;;;27.50;7.40;;;;;;;19.77;86.79;100766.42;86151;1326;22276;-70
2022/08/13 05:09:39;;;;;;;29.60;7.20;;;;;;;19.86;86.28;100761.78;86157;1328;22311;-70
2022/08/13 05:11:48;;;;;;;23.00;6.00;;;;;;;19.93;85.93;100762.12;86165;1327;22980;-70
2022/08/13 05:13:57;;;;;;;16.20;5.70;;;;;;;20.00;85.49;100760.55;86163;1330;22656;-70
2022/08/13 05:16:08;;;;;;;17.70;6.60;;;;;;;20.09;85.64;100759.20;86161;1327;22902;-70
2022/08/13 05:18:18;;;;;;;25.70;7.60;;;;;;;20.21;85.53;100759.42;86153;1328;22824;-71
2022/08/13 05:20:28;;;;;;;28.90;7.80;;;;;;;20.34;85.03;100762.23;86165;1327;23071;-70
2022/08/13 05:22:38;;;;;;;23.70;6.90;;;;;;;20.48;85.27;100761.70;86156;1327;23047;-69
2022/08/13 05:24:46;;;;;;;17.20;7.10;;;;;;;20.61;84.73;100763.06;86092;1329;22513;-69
2022/08/13 05:26:56;;;;;;;40.10;9.20;;;;;;;20.71;84.19;100761.97;86147;1328;22431;-69
2022/08/13 05:29:06;;;;;;;28.80;7.40;;;;;;;20.84;84.38;100760.83;86159;1318;22368;-69
2022/08/13 05:31:17;;;;;;;35.90;9.30;;;;;;;20.98;83.81;100767.05;86165;1326;22454;-69
2022/08/13 05:33:28;;;;;;;43.60;9.50;;;;;;;21.07;82.55;100764.08;86099;1329;22361;-70
2022/08/13 05:35:37;;;;;;;28.30;8.30;;;;;;;21.12;81.62;100764.71;86166;1331;23177;-70
2022/08/13 05:37:46;;;;;;;24.30;8.30;;;;;;;21.15;81.74;100768.27;86162;1328;22966;-70
2022/08/13 05:39:55;;;;;;;32.00;7.60;;;;;;;21.20;81.09;100767.23;86158;1328;22196;-70
2022/08/13 05:42:06;;;;;;;41.50;10.00;;;;;;;21.22;80.59;100763.48;86151;1331;22306;-70
2022/08/13 05:44:14;;;;;;;40.50;8.00;;;;;;;21.25;80.44;100766.43;86150;1328;23129;-70
2022/08/13 05:46:24;;;;;;;28.40;8.30;;;;;;;21.31;81.02;100758.56;86167;1326;22272;-70
2022/08/13 05:48:35;;;;;;;41.90;10.20;;;;;;;21.40;81.27;100754.09;86165;1330;22431;-70
2022/08/13 05:50:44;;;;;;;32.70;8.00;;;;;;;21.58;81.12;100751.52;86164;1330;22293;-70
2022/08/13 05:52:54;;;;;;;30.40;8.00;;;;;;;21.80;80.68;100743.70;86163;1327;22341;-70
2022/08/13 05:55:03;;;;;;;18.10;6.20;;;;;;;21.99;80.16;100743.30;86157;1328;22309;-70
2022/08/13 05:57:14;;;;;;;33.90;8.10;;;;;;;22.09;78.81;100739.27;86156;1326;22421;-70
2022/08/13 06:04:19;;;;;;;16.80;6.10;;;;;;;22.44;77.54;100741.99;86154;1331;22930;-70
2022/08/13 06:06:29;;;;;;;16.20;6.90;;;;;;;22.40;77.50;100743.16;86152;1331;22323;-70
2022/08/13 06:08:40;;;;;;;14.70;5.60;;;;;;;22.46;76.35;100743.10;86160;1330;22904;-70
2022/08/13 06:10:52;;;;;;;14.80;5.80;;;;;;;22.58;76.96;100739.77;86149;1330;22944;-70
2022/08/13 06:13:01;;;;;;;22.10;8.00;;;;;;;22.63;75.60;100739.16;86126;1330;22429;-70
2022/08/13 06:15:11;;;;;;;;;;;;;;;22.56;75.03;100746.88;86067;1330;22742;-70
2022/08/13 06:17:19;;;;;;;21.90;7.80;;;;;;;22.46;75.05;100751.76;86143;1330;22302;-70
2022/08/13 06:19:29;;;;;;;23.60;6.10;;;;;;;22.41;74.83;100754.00;86152;1330;23348;-70
2022/08/13 06:21:38;;;;;;;18.30;6.00;;;;;;;22.32;74.70;100753.45;86143;1323;22365;-70
2022/08/13 06:23:48;;;;;;;11.30;6.00;;;;;;;22.19;74.29;100750.58;86147;1328;22294;-70
2022/08/13 06:25:57;;;;;;;22.90;6.80;;;;;;;22.04;74.20;100750.88;86152;1326;23094;-70
2022/08/13 06:28:10;;;;;;;12.20;6.40;;;;;;;21.87;74.36;100763.56;86162;1326;22946;-70
2022/08/13 06:30:20;;;;;;;13.70;7.30;;;;;;;21.74;74.59;100803.55;86066;1331;22469;-70
2022/08/13 06:32:30;;;;;;;9.70;6.40;;;;;;;21.60;74.49;100828.76;86165;1327;22282;-70
2022/08/13 06:34:41;;;;;;;8.40;5.40;;;;;;;21.43;74.85;100851.53;86152;1327;22289;-70
2022/08/13 06:36:50;;;;;;;7.00;5.00;;;;;;;21.28;75.13;100868.46;86150;1330;22310;-70
2022/08/13 06:39:02;;;;;;;6.70;5.60;;;;;;;21.12;75.53;100875.96;86146;1327;22327;-70
2022/08/13 06:41:12;;;;;;;5.90;4.70;;;;;;;20.97;75.94;100876.95;86143;1328;22482;-70
2022/08/13 06:43:21;;;;;;;10.00;5.20;;;;;;;20.83;76.30;100880.08;86160;1327;22913;-70
2022/08/13 06:45:30;;;;;;;14.60;5.90;;;;;;;20.69;76.88;100886.08;86149;1330;22991;-72
2022/08/13 06:47:39;;;;;;;6.40;5.80;;;;;;;20.53;77.72;100883.63;86163;1326;22304;-70
2022/08/13 06:49:47;;;;;;;9.20;5.60;;;;;;;20.41;78.20;100878.81;86152;1326;22240;-70
2022/08/13 06:51:56;;;;;;;10.20;5.80;;;;;;;20.30;78.99;100876.38;86172;1327;22285;-70
2022/08/13 06:54:08;;;;;;;6.50;5.40;;;;;;;20.19;80.13;100866.56;86151;1326;22352;-70
2022/08/13 06:56:19;;;;;;;8.30;5.40;;;;;;;20.08;80.30;100857.05;86149;1328;23084;-70
2022/08/13 06:58:29;;;;;;;6.40;5.20;;;;;;;20.01;81.09;100865.14;86151;1331;22869;-71
2022/08/13 07:00:38;;;;;;;7.60;5.30;;;;;;;19.94;81.49;100871.15;86149;1331;22985;-70
2022/08/13 07:02:47;;;;;;;6.50;5.70;;;;;;;19.87;82.09;100879.77;86167;1328;22722;-69
2022/08/13 07:04:58;;;;;;;10.00;5.60;;;;;;;19.80;82.53;100869.48;86161;1327;22344;-69
2022/08/13 07:07:07;;;;;;;8.00;6.30;;;;;;;19.76;83.48;100867.79;86164;1328;23065;-70
2022/08/13 07:09:17;;;;;;;7.70;5.90;;;;;;;19.72;83.61;100862.70;86172;1325;22272;-70
2022/08/13 07:11:26;;;;;;;6.60;6.00;;;;;;;19.71;84.21;100870.30;86135;1326;22323;-71
2022/08/13 07:13:35;;;;;;;6.50;5.80;;;;;;;19.66;84.38;100871.83;86144;1327;22233;-71
2022/08/13 07:15:51;;;;;;;6.20;5.50;;;;;;;19.64;84.55;100866.30;86164;1324;22297;-71
2022/08/13 07:18:00;;;;;;;6.10;5.10;;;;;;;19.63;84.85;100881.05;86156;1330;22182;-70
2022/08/13 07:20:11;;;;;;;6.40;5.90;;;;;;;19.63;85.42;100881.07;86148;1331;22163;-70
2022/08/13 07:22:20;;;;;;;6.60;5.70;;;;;;;19.63;85.54;100893.25;86150;1328;22319;-70
2022/08/13 07:24:28;;;;;;;6.70;6.00;;;;;;;19.65;86.18;100900.41;86145;1326;22303;-70
2022/08/13 07:26:37;;;;;;;7.00;6.20;;;;;;;19.63;86.40;100891.71;86072;1331;22885;-71
2022/08/13 07:28:46;;;;;;;7.80;5.40;;;;;;;19.64;86.52;100886.52;86148;1327;22316;-71
2022/08/13 07:30:56;;;;;;;8.40;6.90;;;;;;;19.65;86.65;100870.15;86140;1327;22444;-71
2022/08/13 07:33:05;;;;;;;7.50;6.90;;;;;;;19.66;86.83;100860.33;86153;1326;23455;-71
2022/08/13 07:35:13;;;;;;;6.70;6.00;;;;;;;19.68;87.22;100849.27;86160;1329;22302;-71
2022/08/13 07:37:25;;;;;;;6.40;5.70;;;;;;;19.69;87.34;100826.33;86124;1327;22292;-71
2022/08/13 07:39:34;;;;;;;7.70;6.40;;;;;;;19.72;87.49;100814.21;86154;1328;22983;-71
2022/08/13 07:41:46;;;;;;;6.50;5.90;;;;;;;19.78;87.69;100804.45;86148;1331;22293;-70
2022/08/13 07:43:54;;;;;;;8.50;5.80;;;;;;;19.85;87.94;100797.06;86146;1331;22389;-70
2022/08/13 07:46:07;;;;;;;6.40;5.90;;;;;;;19.94;88.38;100795.55;86149;1330;22864;-70
2022/08/13 07:48:17;;;;;;;5.80;5.30;;;;;;;20.05;88.49;100784.85;86150;1327;22257;-70
2022/08/13 07:50:26;;;;;;;7.00;5.90;;;;;;;20.16;88.71;100779.42;86135;1327;22237;-70
2022/08/13 07:52:35;;;;;;;8.10;5.90;;;;;;;20.28;88.71;100773.41;86159;1326;22291;-70
2022/08/13 07:54:44;;;;;;;6.20;5.70;;;;;;;20.40;88.80;100758.55;86145;1328;22315;-70
2022/08/13 07:56:53;;;;;;;7.90;5.80;;;;;;;20.52;88.75;100758.80;86148;1331;22927;-69
2022/08/13 07:59:04;;;;;;;6.20;5.70;;;;;;;20.61;88.80;100760.77;86148;1327;22211;-70
2022/08/13 08:01:18;;;;;;;6.00;5.20;;;;;;;20.71;88.91;100761.66;86155;1326;22971;-69
2022/08/13 08:03:27;;;;;;;5.80;5.20;;;;;;;20.77;88.67;100761.01;86153;1331;23005;-70
2022/08/13 08:05:39;;;;;;;5.70;5.20;;;;;;;20.86;89.18;100761.91;86152;1326;22248;-70
2022/08/13 08:07:48;;;;;;;4.80;4.40;;;;;;;20.98;89.03;100770.81;86169;1328;22961;-69
2022/08/13 08:09:59;;;;;;;6.60;5.00;;;;;;;21.13;88.98;100772.17;86153;1331;22158;-70
2022/08/13 08:14:37;;;;;;;7.40;6.00;;;;;;;21.45;88.95;100760.89;86140;1326;22293;-69
2022/08/13 08:16:46;;;;;;;6.80;6.20;;;;;;;21.55;89.12;100752.06;86168;1326;22829;-69
2022/08/13 08:18:54;;;;;;;9.80;7.00;;;;;;;21.61;88.60;100742.74;86145;1328;23091;-69
2022/08/13 08:21:12;;;;;;;9.00;6.80;;;;;;;21.63;88.32;100742.58;86164;1331;22926;-69
2022/08/13 08:23:22;;;;;;;6.40;5.80;;;;;;;21.68;88.13;100742.20;86149;1326;22807;-69
2022/08/13 08:25:32;;;;;;;6.00;5.50;;;;;;;21.69;87.77;100737.36;86160;1328;22856;-69
2022/08/13 08:27:42;;;;;;;6.40;5.80;;;;;;;21.68;87.64;100731.02;86167;1327;22403;-69
2022/08/13 08:29:52;;;;;;;6.50;5.90;;;;;;;21.72;87.91;100722.17;86159;1327;22851;-69
2022/08/13 08:32:01;;;;;;;10.80;7.10;;;;;;;21.81;87.74;100725.16;86153;1330;22952;-69
2022/08/13 08:34:10;;;;;;;12.10;6.70;;;;;;;21.84;87.07;100731.64;86161;1326;22929;-69
2022/08/13 08:36:19;;;;;;;8.20;7.10;;;;;;;21.88;87.03;100731.38;86163;1327;22293;-69
2022/08/13 08:43:21;;;;;;;16.10;9.80;;;;;;;21.99;86.19;100731.59;86162;1328;22844;-69
2022/08/13 08:45:31;;;;;;;14.10;8.60;;;;;;;22.01;86.15;100731.04;86155;1327;22303;-69
2022/08/13 08:47:44;;;;;;;14.20;8.70;;;;;;;22.10;86.16;100729.24;86146;1330;22979;-72
2022/08/13 08:49:55;;;;;;;12.30;9.00;;;;;;;22.25;86.42;100720.73;86151;1330;22455;-73
2022/08/13 08:52:04;;;;;;;27.10;9.70;;;;;;;22.48;86.66;100710.93;86152;1325;22858;-70
2022/08/13 08:54:13;;;;;;;12.90;8.10;;;;;;;22.71;85.97;100704.16;86156;1326;22304;-69
2022/08/13 08:56:22;;;;;;;14.60;8.30;;;;;;;22.87;84.90;100699.59;86159;1330;22307;-70
2022/08/13 08:58:34;;;;;;;7.30;6.60;;;;;;;23.01;84.61;100688.35;86161;1327;23046;-72
2022/08/13 09:00:45;;;;;;;9.10;6.70;;;;;;;23.16;83.80;100679.55;86168;1327;22895;-71
2022/08/13 09:02:56;;;;;;;6.30;5.80;;;;;;;23.32;83.37;100671.57;86170;1327;22388;-71
2022/08/13 09:05:06;;;;;;;7.50;6.20;;;;;;;23.65;83.81;100670.51;86173;1328;22233;-71
2022/08/13 09:07:14;;;;;;;9.70;5.90;;;;;;;23.87;82.02;100668.53;86163;1328;22296;-70
2022/08/13 09:09:24;;;;;;;6.30;5.70;;;;;;;23.97;80.54;100668.55;86157;1328;22248;-70
2022/08/13 09:11:34;;;;;;;6.50;5.90;;;;;;;24.09;80.25;100661.60;86160;1326;22950;-71
2022/08/13 09:13:49;;;;;;;7.50;6.10;;;;;;;24.28;78.62;100648.83;86164;1329;22304;-72
2022/08/13 09:15:58;;;;;;;5.90;5.50;;;;;;;24.37;78.61;100648.92;86162;1327;22986;-72
2022/08/13 09:18:06;;;;;;;;;;;;;;;24.49;78.16;100653.34;86179;1324;22308;-70
2022/08/13 09:20:17;;;;;;;6.10;5.50;;;;;;;24.52;76.88;100655.05;86161;1327;22908;-70
2022/08/13 09:22:29;;;;;;;5.60;5.10;;;;;;;24.68;76.40;100651.17;86173;1326;22459;-70
2022/08/13 09:24:45;;;;;;;6.80;6.20;;;;;;;24.97;75.47;100650.80;86173;1327;22229;-70
2022/08/13 09:26:56;;;;;;;5.60;5.10;;;;;;;25.14;75.83;100652.67;86165;1328;22324;-70
2022/08/13 09:29:05;;;;;;;5.80;5.20;;;;;;;25.19;74.89;100654.63;86165;1328;22209;-70
2022/08/13 09:31:18;;;;;;;6.20;5.60;;;;;;;25.06;73.82;100659.81;86161;1326;23137;-69
2022/08/13 09:33:31;;;;;;;6.60;5.60;;;;;;;25.02;74.18;100661.09;86160;1327;22407;-70
2022/08/13 09:35:40;;;;;;;5.30;4.90;;;;;;;25.11;74.43;100662.93;86082;1329;22877;-70
2022/08/13 09:37:53;;;;;;;5.80;5.20;;;;;;;25.11;72.98;100666.83;86165;1330;22901;-69
2022/08/13 09:40:07;;;;;;;5.20;4.30;;;;;;;25.09;72.83;100669.74;86175;1330;22966;-69
2022/08/13 09:42:24;;;;;;;5.60;5.10;;;;;;;25.15;72.92;100670.73;86154;1330;22875;-70
2022/08/13 09:44:41;;;;;;;5.60;4.90;;;;;;;25.27;73.73;100674.06;86162;1328;22492;-71
2022/08/13 09:46:50;;;;;;;6.00;5.40;;;;;;;25.53;74.52;100669.41;86157;1328;22894;-70
2022/08/13 09:48:59;;;;;;;5.40;4.80;;;;;;;25.82;72.96;100672.38;86149;1330;23036;-70
2022/08/13 09:51:13;;;;;;;5.80;5.00;;;;;;;26.01;72.20;100668.95;86166;1330;22290;-70
2022/08/13 09:53:25;;;;;;;5.60;5.10;;;;;;;26.17;71.81;100670.20;86159;1327;22398;-69
2022/08/13 09:55:37;;;;;;;5.40;4.90;;;;;;;26.30;70.94;100669.81;86172;1328;22822;-69
2022/08/13 09:57:59;;;;;;;5.60;4.40;;;;;;;26.58;71.24;100670.44;86166;1327;22317;-71
2022/08/13 10:00:14;;;;;;;4.80;4.40;;;;;;;26.90;69.89;100665.23;86170;1326;22856;-71
2022/08/13 10:02:27;;;;;;;6.00;4.60;;;;;;;27.08;68.21;100666.61;86160;1327;22373;-72
2022/08/13 10:04:43;;;;;;;4.60;4.20;;;;;;;27.27;68.08;100664.23;86154;1325;22196;-71
2022/08/13 10:06:52;;;;;;;6.10;4.30;;;;;;;27.40;68.11;100670.64;86167;1329;22388;-70
2022/08/13 10:09:02;;;;;;;4.50;4.10;;;;;;;27.39;67.56;100677.76;86165;1330;22927;-70
2022/08/13 10:11:13;;;;;;;5.50;4.80;;;;;;;27.27;66.56;100680.71;86151;1330;22906;-70
2022/08/13 10:13:22;;;;;;;7.30;4.70;;;;;;;27.16;66.19;100685.80;86143;1328;23240;-71
2022/08/13 10:15:32;;;;;;;4.50;4.10;;;;;;;27.00;66.04;100686.15;86159;1327;22955;-70
2022/08/13 10:17:55;;;;;;;4.40;4.10;;;;;;;26.89;65.82;100692.39;86164;1330;23020;-72
2022/08/13 10:20:07;;;;;;;5.20;4.80;;;;;;;26.76;66.05;100698.89;86087;1325;22286;-72
2022/08/13 10:22:17;;;;;;;4.80;4.40;;;;;;;26.65;66.32;100702.62;86176;1326;22484;-72
2022/08/13 10:24:29;;;;;;;6.40;5.40;;;;;;;26.63;66.40;100711.42;86160;1325;22953;-73
2022/08/13 10:26:41;;;;;;;5.80;5.20;;;;;;;26.62;66.86;100708.84;86175;1329;22212;-72
2022/08/13 10:28:50;;;;;;;4.90;4.50;;;;;;;26.61;66.12;100706.79;86160;1330;22843;-72